Time;durP1;ratioP1;P1;durP2;ratioP2;P2;SDS_P1;SDS_P2;PMS_P1;PMS_P2;Temp;Humidity;BMP_temperature;BMP_pressure;BME280_temperature;BME280_humidity;BME280_pressure;Samples;Min_cycle;Max_cycle;Signal;HPM_P1;HPM_P2
2022/04/01 00:00:33;;;;;;;4.53;2.87;;;0.90;99.90;-0.10;99626;;;;571546;247;24159;-82
2022/04/01 00:03:01;;;;;;;5.57;3.10;;;0.90;99.90;-0.10;99627;;;;571788;247;24183;-81
2022/04/01 00:05:29;;;;;;;3.33;3.03;;;0.90;99.90;0.00;99612;;;;567264;247;35373;-81
2022/04/01 00:07:57;;;;;;;3.60;2.70;;;0.90;99.90;0.00;99620;;;;572245;247;24095;-80
2022/04/01 00:10:26;;;;;;;2.40;2.03;;;1.00;99.90;0.00;99615;;;;572280;247;24082;-78
2022/04/01 00:12:52;;;;;;;4.53;2.77;;;1.00;99.90;0.00;99612;;;;572215;247;24125;-82
2022/04/01 00:15:20;;;;;;;8.50;3.50;;;1.00;99.90;0.00;99613;;;;572226;247;24110;-80
2022/04/01 00:17:48;;;;;;;6.73;3.60;;;1.00;99.90;-0.10;99616;;;;572270;247;24089;-81
2022/04/01 00:20:20;;;;;;;5.97;3.17;;;0.90;99.20;-0.20;99615;;;;572250;247;24074;-82
2022/04/01 00:22:44;;;;;;;4.70;3.60;;;0.90;98.50;-0.20;99613;;;;581640;245;24081;-81
2022/04/01 00:25:15;;;;;;;3.70;2.87;;;0.80;98.20;-0.20;99618;;;;573277;247;24103;-82
2022/04/01 00:27:43;;;;;;;4.73;3.40;;;0.90;98.30;-0.10;99617;;;;572484;247;24112;-80
2022/04/01 00:30:08;;;;;;;4.00;3.00;;;0.80;97.80;-0.10;99622;;;;572784;247;24098;-77
2022/04/01 00:32:36;;;;;;;6.27;3.27;;;0.90;97.10;-0.10;99627;;;;572923;247;24092;-82
2022/04/01 00:35:08;;;;;;;5.10;4.07;;;0.90;95.30;-0.10;99622;;;;573025;247;24082;-80
2022/04/01 00:37:33;;;;;;;3.67;3.20;;;0.90;95.30;-0.10;99623;;;;571563;247;24106;-81
2022/04/01 00:40:00;;;;;;;4.87;3.15;;;0.90;94.80;-0.10;99626;;;;568018;247;35370;-82
2022/04/01 00:42:30;;;;;;;2.40;2.20;;;0.90;93.80;-0.10;99628;;;;572852;247;24093;-78
2022/04/01 00:44:57;;;;;;;4.07;2.17;;;0.90;93.70;-0.10;99634;;;;572710;247;24091;-81
2022/04/01 00:47:24;;;;;;;2.27;2.07;;;0.90;93.70;-0.10;99627;;;;572673;247;24129;-79
2022/04/01 00:49:55;;;;;;;4.50;2.90;;;0.90;93.50;-0.10;99616;;;;572366;247;24128;-79
2022/04/01 00:52:20;;;;;;;3.07;2.77;;;0.90;93.40;-0.10;99616;;;;572522;247;24097;-79
2022/04/01 00:54:48;;;;;;;4.97;3.60;;;0.90;93.30;-0.10;99625;;;;572351;247;24110;-79
2022/04/01 00:57:19;;;;;;;3.03;2.83;;;0.90;93.30;-0.10;99623;;;;572368;247;24136;-80
2022/04/01 00:59:43;;;;;;;5.20;3.00;;;0.90;93.80;-0.10;99614;;;;574327;247;24120;-78
2022/04/01 01:02:12;;;;;;;10.57;3.20;;;0.90;94.40;-0.10;99628;;;;571745;247;24148;-80
2022/04/01 01:04:39;;;;;;;4.10;3.13;;;0.90;93.60;-0.10;99624;;;;571831;247;24155;-78
2022/04/01 01:07:10;;;;;;;5.03;3.57;;;0.90;93.70;-0.10;99623;;;;572307;247;24090;-79
2022/04/01 01:09:35;;;;;;;7.20;3.43;;;0.90;94.10;-0.10;99617;;;;571963;247;24083;-82
2022/04/01 01:12:03;;;;;;;5.33;3.20;;;0.80;93.80;-0.10;99621;;;;572216;247;24098;-79
2022/04/01 01:14:34;;;;;;;4.13;2.90;;;0.90;93.40;-0.10;99626;;;;572282;247;24138;-78
2022/04/01 01:16:59;;;;;;;3.27;3.00;;;0.80;92.70;-0.10;99625;;;;571460;247;24116;-79
2022/04/01 01:19:30;;;;;;;2.77;2.50;;;0.90;91.10;-0.10;99629;;;;571021;247;24079;-80
2022/04/01 01:21:57;;;;;;;8.13;2.93;;;0.80;90.40;-0.10;99623;;;;571954;247;24082;-79
2022/04/01 01:24:28;;;;;;;3.40;2.77;;;0.80;90.00;-0.10;99616;;;;572041;247;24131;-80
2022/04/01 01:26:57;;;;;;;4.50;2.50;;;0.90;90.10;-0.10;99619;;;;571529;247;24112;-78
2022/04/01 01:29:25;;;;;;;3.47;2.60;;;0.90;88.00;-0.10;99616;;;;570227;247;24086;-78
2022/04/01 01:31:55;;;;;;;2.87;2.40;;;0.80;87.60;-0.10;99616;;;;570708;247;24139;-78
2022/04/01 01:34:20;;;;;;;4.63;2.70;;;0.80;87.50;-0.10;99613;;;;581978;245;24088;-81
2022/04/01 01:36:48;;;;;;;4.70;2.40;;;0.90;86.90;-0.10;99609;;;;573809;247;24084;-78
2022/04/01 01:39:15;;;;;;;3.63;2.70;;;0.80;86.60;-0.10;99611;;;;573389;247;24112;-77
2022/04/01 01:41:43;;;;;;;5.20;3.13;;;0.80;86.10;-0.20;99601;;;;573617;247;24105;-78
2022/04/01 01:44:11;;;;;;;3.30;2.23;;;0.80;85.10;-0.10;99610;;;;572192;247;24085;-76
2022/04/01 01:46:39;;;;;;;7.30;2.93;;;0.80;84.40;-0.10;99606;;;;573240;247;24068;-77
2022/04/01 01:49:07;;;;;;;4.10;3.17;;;0.80;85.00;-0.20;99600;;;;572961;247;24090;-78
2022/04/01 01:57:11;;;;;;;4.00;2.50;;;0.70;87.20;-0.30;99612;;;;572515;247;24096;-77
2022/04/01 01:59:39;;;;;;;4.80;2.50;;;0.70;87.10;-0.30;99603;;;;572284;247;24090;-78
2022/04/01 02:02:05;;;;;;;3.20;2.57;;;0.70;87.30;-0.30;99603;;;;571778;247;24104;-78
2022/04/01 02:04:31;;;;;;;4.20;2.30;;;0.70;87.60;-0.30;99600;;;;570715;247;24150;-78
2022/04/01 02:07:03;;;;;;;2.23;2.03;;;0.70;87.30;-0.30;99600;;;;572345;247;25143;-77
2022/04/01 02:09:29;;;;;;;2.80;2.00;;;0.70;86.80;-0.30;99597;;;;572058;247;24093;-76
2022/04/01 02:11:57;;;;;;;2.77;2.20;;;0.70;86.80;-0.30;99603;;;;572103;247;24097;-77
2022/04/01 02:14:25;;;;;;;3.50;2.33;;;0.70;87.10;-0.30;99601;;;;572241;247;25111;-79
2022/04/01 02:16:53;;;;;;;3.23;2.10;;;0.70;88.10;-0.30;99608;;;;572189;247;24140;-80
2022/04/01 02:19:23;;;;;;;2.53;2.23;;;0.70;89.40;-0.40;99609;;;;572231;247;24117;-78
2022/04/01 02:21:51;;;;;;;4.23;2.27;;;0.70;90.00;-0.40;99603;;;;572218;247;24090;-77
2022/04/01 02:24:23;;;;;;;3.67;2.33;;;0.60;90.20;-0.50;99597;;;;572142;247;24093;-78
2022/04/01 02:26:53;;;;;;;2.83;2.10;;;0.60;90.50;-0.50;99599;;;;575823;247;24098;-79
2022/04/01 02:29:20;;;;;;;4.17;2.67;;;0.60;90.40;-0.50;99600;;;;570872;247;25127;-78
2022/04/01 02:31:50;;;;;;;2.10;1.97;;;0.50;90.40;-0.50;99606;;;;571094;247;24086;-79
2022/04/01 02:34:20;;;;;;;3.77;2.40;;;0.50;90.50;-0.50;99605;;;;575934;247;24094;-78
2022/04/01 02:36:48;;;;;;;3.13;2.00;;;0.50;90.50;-0.50;99601;;;;570365;247;24094;-78
2022/04/01 02:39:13;;;;;;;3.13;2.10;;;0.50;89.90;-0.50;99603;;;;571931;247;24074;-80
2022/04/01 02:41:44;;;;;;;4.00;2.30;;;0.50;90.00;-0.50;99606;;;;572270;247;24082;-78
2022/04/01 02:44:08;;;;;;;2.77;2.23;;;0.40;90.00;-0.60;99609;;;;571916;247;24104;-78
2022/04/01 02:46:36;;;;;;;2.20;2.00;;;0.40;90.10;-0.60;99603;;;;573622;246;24089;-78
2022/04/01 02:49:06;;;;;;;3.60;2.00;;;0.40;90.40;-0.70;99604;;;;571708;247;24088;-81
2022/04/01 02:51:32;;;;;;;4.00;2.00;;;0.40;91.30;-0.60;99617;;;;571725;247;24096;-80
2022/04/01 02:54:03;;;;;;;2.07;1.73;;;0.40;91.60;-0.60;99594;;;;572640;247;25146;-79
2022/04/01 02:56:28;;;;;;;3.77;1.97;;;0.30;91.20;-0.60;99601;;;;572316;247;24089;-78
2022/04/01 02:58:56;;;;;;;3.37;1.90;;;0.40;90.10;-0.50;99609;;;;572420;247;24129;-78
2022/04/01 03:01:24;;;;;;;1.43;1.30;;;0.40;89.00;-0.50;99604;;;;572316;247;24121;-79
2022/04/01 03:03:53;;;;;;;5.53;1.80;;;0.50;89.00;-0.50;99598;;;;572580;247;24096;-79
2022/04/01 03:06:20;;;;;;;4.77;2.00;;;0.40;89.00;-0.60;99601;;;;572508;247;24074;-78
2022/04/01 03:08:49;;;;;;;2.70;1.70;;;0.40;89.40;-0.60;99593;;;;572070;247;24118;-80
2022/04/01 03:11:17;;;;;;;2.33;1.90;;;0.40;90.20;-0.60;99600;;;;580999;247;24117;-79
2022/04/01 03:13:44;;;;;;;2.67;1.70;;;0.40;91.00;-0.60;99600;;;;571022;247;24190;-78
2022/04/01 03:16:16;;;;;;;2.63;2.10;;;0.40;92.00;-0.70;99600;;;;572309;247;24083;-78
2022/04/01 03:18:43;;;;;;;5.17;2.43;;;0.30;93.00;-0.70;99599;;;;572190;247;24140;-78
2022/04/01 03:21:11;;;;;;;2.97;2.50;;;0.30;94.90;-0.70;99604;;;;572568;247;24087;-79
2022/04/01 03:23:39;;;;;;;2.70;2.27;;;0.30;96.20;-0.60;99603;;;;570956;247;24081;-78
2022/04/01 03:26:10;;;;;;;2.60;2.23;;;0.30;96.50;-0.70;99606;;;;575771;247;24116;-80
2022/04/01 03:28:35;;;;;;;4.33;2.03;;;0.30;96.50;-0.60;99615;;;;570761;247;24185;-79
2022/04/01 03:31:06;;;;;;;4.20;2.40;;;0.30;96.50;-0.60;99605;;;;572254;247;24098;-78
2022/04/01 03:33:34;;;;;;;4.73;2.73;;;0.30;96.30;-0.60;99603;;;;571267;247;24094;-78
2022/04/01 03:36:02;;;;;;;4.90;2.20;;;0.30;95.90;-0.60;99605;;;;571191;247;24113;-78
2022/04/01 03:38:31;;;;;;;2.23;2.03;;;0.40;95.90;-0.70;99606;;;;572548;247;24103;-79
2022/04/01 03:40:59;;;;;;;3.30;2.23;;;0.30;95.90;-0.70;99613;;;;572293;247;24115;-80
2022/04/01 03:43:26;;;;;;;3.30;2.43;;;0.30;96.00;-0.70;99618;;;;572243;247;24119;-82
2022/04/01 03:45:54;;;;;;;7.00;2.40;;;0.30;95.90;-0.70;99610;;;;572266;247;24188;-78
2022/04/01 03:48:42;;;;;;;2.40;2.20;;;0.30;95.80;-0.70;99609;;;;575605;247;24102;-79
2022/04/01 03:51:09;;;;;;;6.50;2.63;;;0.30;95.50;-0.70;99620;;;;576076;247;24096;-79
2022/04/01 03:53:36;;;;;;;2.53;1.90;;;0.30;95.40;-0.70;99612;;;;572649;247;24095;-81
2022/04/01 03:56:07;;;;;;;3.97;2.10;;;0.20;95.40;-0.70;99613;;;;571950;247;24097;-79
2022/04/01 03:58:35;;;;;;;1.73;1.63;;;0.30;95.30;-0.70;99610;;;;574744;246;24115;-78
2022/04/01 04:01:03;;;;;;;2.40;2.03;;;0.30;95.00;-0.70;99595;;;;577660;247;24077;-79
2022/04/01 04:03:34;;;;;;;6.87;1.90;;;0.30;94.90;-0.70;99618;;;;572688;247;25138;-79
2022/04/01 04:05:59;;;;;;;2.70;1.73;;;0.30;94.60;-0.70;99628;;;;572018;247;24147;-78
2022/04/01 04:08:26;;;;;;;7.60;2.03;;;0.20;94.40;-0.80;99607;;;;573466;247;24172;-77
2022/04/01 04:10:56;;;;;;;2.20;1.30;;;0.30;94.50;-0.80;99611;;;;573453;247;25219;-78
2022/04/01 04:13:26;;;;;;;1.73;1.40;;;0.20;94.10;-0.70;99607;;;;572686;247;24117;-78
2022/04/01 04:16:05;;;;;;;2.75;1.90;;;0.30;93.90;-0.60;99612;;;;566594;247;35272;-78
2022/04/01 04:18:35;;;;;;;2.27;0.80;;;0.30;94.10;-0.60;99623;;;;572615;247;24090;-79
2022/04/01 04:21:13;;;;;;;1.23;1.13;;;0.30;94.00;-0.60;99621;;;;572398;247;24082;-78
2022/04/01 04:23:44;;;;;;;3.20;1.50;;;0.40;94.00;-0.60;99621;;;;572231;247;24174;-79
2022/04/01 04:26:13;;;;;;;1.97;1.60;;;0.40;93.80;-0.60;99619;;;;571333;247;24082;-78
2022/04/01 04:28:43;;;;;;;2.03;1.70;;;0.30;93.80;-0.60;99622;;;;571253;247;24109;-78
2022/04/01 04:31:11;;;;;;;1.67;1.57;;;0.40;93.50;-0.60;99620;;;;571363;247;24077;-78
2022/04/01 04:33:45;;;;;;;3.73;2.00;;;0.40;93.10;-0.60;99610;;;;571108;247;24074;-79
2022/04/01 04:36:13;;;;;;;4.53;1.97;;;0.40;93.20;-0.50;99622;;;;571748;247;24164;-78
2022/04/01 04:38:40;;;;;;;1.43;1.33;;;0.40;93.20;-0.50;99625;;;;570835;247;24139;-78
2022/04/01 04:41:13;;;;;;;2.23;1.60;;;0.50;91.90;-0.40;99625;;;;572214;247;24137;-78
2022/04/01 04:43:40;;;;;;;5.77;1.80;;;0.50;92.00;-0.40;99614;;;;572044;247;24097;-79
2022/04/01 04:46:08;;;;;;;3.17;2.00;;;0.60;92.10;-0.30;99621;;;;571951;247;24109;-81
2022/04/01 04:48:36;;;;;;;7.67;2.10;;;0.60;92.10;-0.30;99617;;;;571030;247;24148;-80
2022/04/01 04:51:05;;;;;;;3.53;1.63;;;0.70;92.20;-0.20;99615;;;;575318;247;24081;-80
2022/04/01 04:53:34;;;;;;;3.97;1.30;;;0.70;91.60;-0.10;99609;;;;570654;247;24107;-80
2022/04/01 04:56:00;;;;;;;1.20;1.10;;;0.80;91.20;0.00;99624;;;;575356;247;25125;-78
2022/04/01 04:58:31;;;;;;;4.60;2.23;;;0.90;91.10;0.10;99605;;;;577436;247;24090;-78
2022/04/01 05:00:59;;;;;;;1.57;1.40;;;1.00;90.70;0.20;99619;;;;570412;247;24123;-79
2022/04/01 05:03:35;;;;;;;4.23;1.57;;;1.10;90.70;0.30;99620;;;;569931;247;24206;-79
2022/04/01 05:06:03;;;;;;;4.07;1.70;;;1.20;90.90;0.40;99632;;;;571769;247;25167;-79
2022/04/01 05:08:59;;;;;;;2.87;1.87;;;1.40;90.40;0.50;99621;;;;571232;246;24104;-81
2022/04/01 05:11:51;;;;;;;4.27;1.77;;;1.40;90.40;0.60;99628;;;;576827;247;24149;-78
2022/04/01 05:14:48;;;;;;;5.83;3.30;;;1.70;88.70;0.80;99627;;;;576286;247;24155;-81
2022/04/01 05:17:15;;;;;;;4.03;1.90;;;1.70;88.70;0.90;99641;;;;569878;247;24101;-78
2022/04/01 05:19:43;;;;;;;1.10;1.10;;;1.80;86.80;1.10;99637;;;;571004;247;24112;-78
2022/04/01 05:22:11;;;;;;;1.93;1.07;;;2.00;85.20;1.30;99645;;;;570820;247;24131;-79
2022/04/01 05:24:49;;;;;;;6.28;2.30;;;2.40;85.60;1.60;99651;;;;567058;247;35257;-79
2022/04/01 05:27:28;;;;;;;3.33;1.50;;;2.80;83.40;2.00;99635;;;;571086;247;24120;-82
2022/04/01 05:30:16;;;;;;;2.80;1.93;;;2.80;83.40;2.40;99643;;;;572254;247;24108;-81
2022/04/01 05:32:42;;;;;;;1.30;1.20;;;3.20;80.40;2.70;99655;;;;571935;247;24092;-81
2022/04/01 05:35:10;;;;;;;2.00;1.60;;;3.60;79.50;3.00;99646;;;;567412;247;24111;-78
2022/04/01 05:37:38;;;;;;;1.70;0.67;;;3.80;78.70;3.30;99641;;;;572044;247;24150;-78
2022/04/01 05:40:11;;;;;;;3.60;1.57;;;4.40;74.60;3.60;99656;;;;571057;247;24104;-77
2022/04/01 05:42:35;;;;;;;1.00;0.90;;;4.40;74.50;3.80;99657;;;;571778;247;24100;-79
2022/04/01 05:45:03;;;;;;;0.60;0.60;;;4.70;73.50;4.00;99664;;;;571789;247;24112;-77
2022/04/01 05:47:31;;;;;;;0.97;0.97;;;4.90;72.80;4.10;99666;;;;570739;247;24097;-78
2022/04/01 05:49:58;;;;;;;1.00;0.93;;;5.00;71.70;4.40;99666;;;;571735;247;25477;-80
2022/04/01 05:52:27;;;;;;;1.80;1.42;;;5.60;69.80;4.80;99663;;;;567231;247;35253;-81
2022/04/01 05:54:59;;;;;;;2.53;1.17;;;5.60;69.80;5.30;99678;;;;570595;247;24100;-81
2022/04/01 05:57:27;;;;;;;3.47;1.10;;;6.10;68.00;5.40;99687;;;;571713;247;24096;-80
2022/04/01 05:59:51;;;;;;;1.40;1.30;;;6.40;65.50;5.50;99680;;;;571542;247;24142;-80
2022/04/01 06:02:37;;;;;;;2.47;1.40;;;6.40;64.60;6.00;99667;;;;571833;247;25229;-80
2022/04/01 06:05:05;;;;;;;5.07;1.33;;;6.80;63.80;6.50;99668;;;;574268;247;24172;-79
2022/04/01 06:07:51;;;;;;;2.43;0.80;;;7.30;61.30;6.60;99682;;;;570614;247;24094;-79
2022/04/01 06:10:37;;;;;;;2.33;1.20;;;7.50;60.00;6.90;99694;;;;572093;247;24110;-77
2022/04/01 06:13:29;;;;;;;1.63;1.07;;;7.80;59.20;6.80;99679;;;;575582;247;24102;-78
2022/04/01 06:16:05;;;;;;;1.43;1.30;;;7.80;58.90;7.00;99688;;;;565712;250;25173;-78
2022/04/01 06:18:54;;;;;;;1.27;1.17;;;7.90;59.60;7.30;99692;;;;565859;250;24235;-82
2022/04/01 06:21:24;;;;;;;1.27;1.10;;;8.20;58.60;7.30;99710;;;;574420;246;25209;-81
2022/04/01 06:24:08;;;;;;;9.37;2.33;;;8.30;57.40;7.30;99706;;;;572752;247;24118;-82
2022/04/01 06:26:41;;;;;;;2.80;0.80;;;8.30;56.10;7.00;99693;;;;572807;247;24093;-79
2022/04/01 06:29:39;;;;;;;5.93;1.47;;;8.20;56.40;7.00;99712;;;;572389;247;24130;-82
2022/04/01 06:32:18;;;;;;;5.13;1.30;;;8.00;56.20;7.10;99704;;;;572546;247;24119;-77
2022/04/01 06:34:55;;;;;;;1.63;1.10;;;8.20;57.30;7.30;99699;;;;581522;246;24083;-77
2022/04/01 06:37:23;;;;;;;1.87;1.43;;;8.10;57.20;7.50;99692;;;;574767;247;24088;-78
2022/04/01 06:40:12;;;;;;;1.40;1.30;;;8.30;56.50;8.00;99691;;;;570798;247;24107;-79
2022/04/01 06:42:40;;;;;;;2.73;1.20;;;8.80;56.50;8.60;99705;;;;572494;247;24078;-81
2022/04/01 06:45:13;;;;;;;7.43;1.30;;;9.30;55.90;8.80;99707;;;;572505;247;24086;-81
2022/04/01 06:47:40;;;;;;;1.33;1.17;;;9.70;55.80;8.80;99704;;;;580951;247;24147;-80
2022/04/01 06:50:07;;;;;;;2.57;1.10;;;10.00;54.00;9.10;99702;;;;572130;247;24080;-78
2022/04/01 06:52:35;;;;;;;7.67;1.10;;;10.00;54.00;9.10;99702;;;;572389;247;24086;-77
2022/04/01 06:55:03;;;;;;;2.83;1.30;;;10.20;54.00;9.00;99705;;;;571193;247;24162;-81
2022/04/01 06:57:31;;;;;;;1.90;0.83;;;10.10;53.50;8.90;99717;;;;572053;247;24105;-78
2022/04/01 06:59:59;;;;;;;1.43;1.10;;;10.00;53.60;8.80;99711;;;;575945;247;24131;-81
2022/04/01 07:02:27;;;;;;;5.10;1.10;;;9.90;53.80;9.20;99715;;;;571012;247;24147;-81
2022/04/01 07:04:54;;;;;;;4.73;1.20;;;10.10;54.30;9.70;99723;;;;572277;247;24089;-80
2022/04/01 07:07:22;;;;;;;3.37;1.13;;;10.60;52.30;9.30;99714;;;;570927;247;24108;-79
2022/04/01 07:09:50;;;;;;;5.70;0.90;;;10.50;51.00;8.80;99724;;;;570980;247;24087;-77
2022/04/01 07:12:18;;;;;;;1.47;0.90;;;10.10;49.70;8.70;99730;;;;571907;247;24118;-79
2022/04/01 07:14:46;;;;;;;3.90;1.03;;;9.80;50.60;8.80;99731;;;;570506;247;24184;-81
2022/04/01 07:17:14;;;;;;;6.50;0.60;;;9.80;51.30;8.90;99734;;;;571919;247;24189;-80
2022/04/01 07:19:42;;;;;;;4.87;1.70;;;9.90;50.70;8.90;99717;;;;567125;247;35235;-81
2022/04/01 07:22:10;;;;;;;1.87;1.50;;;9.90;50.70;9.00;99716;;;;571906;247;24204;-82
2022/04/01 07:24:38;;;;;;;9.10;1.57;;;10.10;51.00;9.20;99715;;;;571921;247;24154;-82
2022/04/01 07:27:06;;;;;;;4.27;1.57;;;10.10;50.90;9.60;99733;;;;570489;247;24195;-80
2022/04/01 07:29:34;;;;;;;6.83;1.43;;;10.40;50.60;9.90;99715;;;;570701;247;24084;-81
2022/04/01 07:34:48;;;;;;;8.53;1.50;;;10.90;49.50;10.20;99729;;;;572983;247;24096;-78
2022/04/01 07:37:16;;;;;;;2.53;1.40;;;11.20;48.90;10.40;99737;;;;571295;247;24089;-78
2022/04/01 07:39:45;;;;;;;3.70;1.67;;;11.30;48.50;10.20;99727;;;;571354;247;24097;-76
2022/04/01 07:42:13;;;;;;;8.90;1.70;;;11.30;48.50;10.60;99738;;;;571030;247;24082;-80
2022/04/01 07:44:41;;;;;;;3.50;2.07;;;11.60;48.70;10.90;99719;;;;571263;247;24125;-79
2022/04/01 07:47:09;;;;;;;5.47;1.40;;;11.90;47.30;11.00;99726;;;;572426;247;24074;-80
2022/04/01 07:49:41;;;;;;;7.07;1.23;;;12.00;46.00;10.80;99716;;;;581135;247;25142;-80
2022/04/01 07:52:08;;;;;;;4.70;1.90;;;11.90;45.90;10.60;99719;;;;571935;247;24120;-80
2022/04/01 07:54:34;;;;;;;11.83;2.03;;;11.80;46.40;10.60;99717;;;;571786;247;24110;-77
2022/04/01 07:57:01;;;;;;;8.07;2.03;;;11.70;45.50;10.70;99723;;;;572104;247;24142;-77
2022/04/01 07:59:29;;;;;;;2.73;2.13;;;11.80;46.20;10.80;99726;;;;580772;247;24178;-77
2022/04/01 08:01:57;;;;;;;1.53;1.10;;;11.80;45.20;10.90;99727;;;;570902;247;24074;-78
2022/04/01 08:04:28;;;;;;;5.87;2.37;;;12.00;44.40;11.10;99715;;;;572124;247;24152;-78
2022/04/01 08:06:55;;;;;;;1.33;1.23;;;12.10;45.30;11.30;99720;;;;570765;247;24165;-78
2022/04/01 08:09:23;;;;;;;11.57;1.33;;;12.40;44.50;11.50;99729;;;;575570;247;24091;-77
2022/04/01 08:11:52;;;;;;;4.77;1.60;;;12.90;44.40;11.90;99725;;;;571776;247;24113;-79
2022/04/01 08:14:20;;;;;;;3.83;1.27;;;12.80;44.40;12.10;99731;;;;571740;247;24101;-78
2022/04/01 08:16:48;;;;;;;1.63;1.50;;;13.10;43.90;11.80;99733;;;;571805;247;24124;-78
2022/04/01 08:19:16;;;;;;;2.87;1.43;;;13.10;44.40;11.40;99719;;;;575953;247;24074;-77
2022/04/01 08:21:48;;;;;;;2.67;1.73;;;12.80;43.70;11.70;99744;;;;571839;247;24095;-78
2022/04/01 08:24:16;;;;;;;5.63;1.67;;;12.80;43.50;11.80;99741;;;;570534;247;24093;-78
2022/04/01 08:26:42;;;;;;;1.07;1.00;;;13.00;43.10;11.80;99736;;;;570602;247;24116;-78
2022/04/01 08:29:10;;;;;;;1.13;1.10;;;13.00;43.10;12.30;99731;;;;571808;247;24103;-78
2022/04/01 08:31:41;;;;;;;20.70;2.27;;;13.30;43.50;12.00;99738;;;;570662;247;24133;-78
2022/04/01 08:34:07;;;;;;;4.97;1.20;;;13.10;42.10;11.60;99758;;;;571696;247;24109;-77
2022/04/01 08:36:35;;;;;;;4.63;1.03;;;13.00;42.10;11.90;99746;;;;570699;247;24124;-78
2022/04/01 08:39:06;;;;;;;4.83;1.20;;;13.10;43.20;11.90;99748;;;;570676;247;24106;-78
2022/04/01 08:41:33;;;;;;;4.50;1.20;;;13.10;42.90;12.10;99749;;;;571419;247;24130;-79
2022/04/01 08:44:01;;;;;;;4.33;1.53;;;13.30;42.00;12.30;99740;;;;571749;246;24115;-82
2022/04/01 08:46:29;;;;;;;4.27;1.30;;;13.50;41.70;12.70;99759;;;;572889;247;24104;-82
2022/04/01 08:48:57;;;;;;;2.63;1.50;;;13.80;41.60;12.50;99737;;;;572732;247;24198;-81
2022/04/01 08:51:25;;;;;;;6.33;1.30;;;13.70;40.90;12.50;99751;;;;571380;247;24101;-82
2022/04/01 08:53:53;;;;;;;2.13;1.30;;;13.80;40.70;11.70;99743;;;;572252;247;24144;-79
2022/04/01 08:56:21;;;;;;;3.97;1.13;;;13.40;40.00;10.90;99758;;;;571193;247;24108;-81
2022/04/01 08:58:53;;;;;;;1.20;1.10;;;12.60;41.40;10.40;99733;;;;572346;247;24122;-77
2022/04/01 09:01:17;;;;;;;12.50;2.33;;;12.00;42.30;10.50;99760;;;;571758;247;24099;-79
2022/04/01 09:03:47;;;;;;;2.67;1.03;;;11.80;43.50;10.80;99760;;;;572138;247;24113;-78
2022/04/01 09:06:12;;;;;;;4.90;1.70;;;11.90;43.60;11.10;99757;;;;575352;247;24116;-78
2022/04/01 09:08:40;;;;;;;4.53;1.27;;;12.20;43.40;11.40;99743;;;;572149;247;24120;-79
2022/04/01 09:11:17;;;;;;;2.33;1.50;;;12.50;42.30;11.50;99773;;;;572059;247;24138;-78
2022/04/01 09:13:51;;;;;;;0.97;0.97;;;12.70;42.00;11.60;99773;;;;572480;247;24102;-77
2022/04/01 09:16:26;;;;;;;1.33;1.20;;;12.90;41.80;11.70;99750;;;;580769;247;24153;-79
2022/04/01 09:18:53;;;;;;;1.40;1.30;;;13.00;40.90;11.80;99736;;;;571601;247;24082;-79
2022/04/01 09:21:21;;;;;;;3.90;1.90;;;13.10;41.30;12.10;99733;;;;569776;247;24104;-78
2022/04/01 09:23:49;;;;;;;1.40;1.03;;;13.40;40.80;12.40;99734;;;;571375;247;24164;-78
2022/04/01 09:26:21;;;;;;;6.63;1.50;;;13.60;40.80;13.00;99759;;;;571812;247;24140;-79
2022/04/01 09:28:47;;;;;;;2.77;1.10;;;14.20;40.10;12.80;99735;;;;570291;247;24174;-81
2022/04/01 09:31:18;;;;;;;2.87;0.97;;;14.30;39.40;12.70;99730;;;;570521;247;24084;-80
2022/04/01 09:33:55;;;;;;;1.60;1.10;;;14.20;39.50;12.60;99744;;;;571402;247;24147;-78
2022/04/01 09:36:23;;;;;;;2.07;0.90;;;14.10;39.80;12.40;99731;;;;575443;247;24092;-80
2022/04/01 09:38:56;;;;;;;2.77;1.30;;;13.90;40.20;12.60;99729;;;;571782;247;24097;-81
2022/04/01 09:41:31;;;;;;;4.97;1.30;;;14.00;39.80;12.60;99722;;;;570591;247;24084;-80
2022/04/01 09:44:01;;;;;;;5.17;1.17;;;14.00;39.90;12.90;99732;;;;571615;247;24176;-81
2022/04/01 09:46:29;;;;;;;6.93;1.63;;;14.30;39.60;13.10;99739;;;;571244;247;24162;-80
2022/04/01 09:49:01;;;;;;;8.57;1.57;;;14.50;39.40;12.70;99732;;;;571801;247;24233;-79
2022/04/01 09:51:28;;;;;;;3.07;1.20;;;14.20;39.40;12.60;99734;;;;580420;247;24118;-81
2022/04/01 09:54:02;;;;;;;6.17;1.10;;;14.20;39.30;12.20;99724;;;;571641;247;24142;-80
2022/04/01 09:56:45;;;;;;;12.03;1.60;;;13.80;39.80;12.60;99735;;;;572269;246;24112;-79
2022/04/01 09:59:16;;;;;;;3.73;1.27;;;14.10;40.00;12.50;99741;;;;571725;247;24147;-80
2022/04/01 10:01:41;;;;;;;4.00;0.93;;;14.00;40.20;12.90;99726;;;;576361;247;24148;-81
2022/04/01 10:04:09;;;;;;;8.40;1.30;;;14.80;39.10;13.30;99720;;;;572709;247;24092;-82
2022/04/01 10:06:39;;;;;;;3.27;1.60;;;15.10;39.30;13.60;99721;;;;572482;247;24100;-78
2022/04/01 10:09:09;;;;;;;5.30;1.37;;;15.00;38.90;13.70;99748;;;;571226;247;24096;-81
2022/04/01 10:11:37;;;;;;;7.10;1.23;;;15.30;38.10;13.30;99735;;;;572580;247;24097;-81
2022/04/01 10:14:11;;;;;;;1.10;1.00;;;15.10;38.60;12.90;99741;;;;572082;247;24088;-78
2022/04/01 10:16:41;;;;;;;3.73;1.20;;;14.80;38.60;12.40;99740;;;;571750;247;24117;-79
2022/04/01 10:19:07;;;;;;;3.50;1.53;;;14.30;39.60;11.60;99714;;;;572043;247;24154;-80
2022/04/01 10:21:35;;;;;;;9.37;1.10;;;13.50;40.60;10.10;99716;;;;572077;247;24117;-80
2022/04/01 10:24:15;;;;;;;1.40;1.03;;;10.80;46.30;9.00;99709;;;;572324;247;24115;-81
2022/04/01 10:27:01;;;;;;;8.00;1.40;;;10.80;45.60;8.30;99735;;;;571189;247;24102;-82
2022/04/01 10:29:29;;;;;;;8.10;1.30;;;9.90;47.50;7.50;99748;;;;571237;247;24182;-81
2022/04/01 10:31:57;;;;;;;1.57;1.23;;;9.00;49.50;7.10;99739;;;;572177;247;24105;-81
2022/04/01 10:34:25;;;;;;;1.53;0.90;;;7.90;52.60;6.70;99702;;;;568354;247;24132;-81
2022/04/01 10:36:53;;;;;;;0.80;0.80;;;7.90;52.50;6.50;99702;;;;572228;247;24131;-83
2022/04/01 10:39:21;;;;;;;0.60;0.60;;;7.60;53.80;6.20;99702;;;;570990;247;24097;-81
2022/04/01 10:42:08;;;;;;;10.53;1.13;;;7.30;54.60;6.00;99707;;;;572396;247;24076;-78
2022/04/01 10:44:48;;;;;;;0.93;0.90;;;7.00;55.00;5.60;99699;;;;571071;247;24114;-81
2022/04/01 10:47:15;;;;;;;0.60;0.60;;;6.70;55.40;5.40;99699;;;;571358;247;24173;-80
2022/04/01 10:52:30;;;;;;;0.50;0.50;;;6.20;56.90;4.80;99719;;;;572127;247;24081;-79
2022/04/01 10:55:05;;;;;;;8.20;1.10;;;5.90;57.30;4.60;99700;;;;571649;247;24199;-78
2022/04/01 10:57:32;;;;;;;11.80;1.80;;;5.60;58.20;4.40;99703;;;;571989;247;24140;-78
2022/04/01 10:59:59;;;;;;;5.73;0.70;;;5.50;58.90;4.30;99683;;;;568847;247;24153;-77
2022/04/01 11:02:28;;;;;;;0.57;0.50;;;5.20;59.60;4.30;99709;;;;570318;247;24107;-78
2022/04/01 11:04:57;;;;;;;1.03;0.83;;;5.20;59.60;4.20;99695;;;;571667;247;24173;-80
2022/04/01 11:07:24;;;;;;;2.00;0.63;;;5.10;59.50;4.10;99713;;;;572727;246;24098;-79
2022/04/01 11:09:58;;;;;;;3.30;1.40;;;5.00;59.50;4.00;99697;;;;572854;247;24108;-79
2022/04/01 11:12:38;;;;;;;1.53;0.90;;;5.00;59.40;4.00;99702;;;;576172;247;25186;-77
2022/04/01 11:15:20;;;;;;;0.50;0.50;;;4.90;59.40;3.90;99691;;;;571290;247;24115;-80
2022/04/01 11:17:50;;;;;;;6.43;1.10;;;4.80;60.10;3.90;99689;;;;572513;247;24088;-78
2022/04/01 11:20:26;;;;;;;6.53;1.00;;;4.80;60.10;3.80;99688;;;;572114;247;24172;-81
2022/04/01 11:22:54;;;;;;;4.90;0.97;;;4.80;60.30;3.70;99703;;;;571516;247;24124;-79
2022/04/01 11:25:25;;;;;;;0.60;0.60;;;4.70;60.60;3.60;99712;;;;572100;247;24132;-78
2022/04/01 11:28:11;;;;;;;1.90;0.90;;;4.50;61.40;3.50;99694;;;;572004;247;24092;-78
2022/04/01 11:30:42;;;;;;;1.87;0.97;;;4.40;61.20;3.30;99694;;;;571826;247;24094;-81
2022/04/01 11:33:10;;;;;;;3.30;0.80;;;4.30;60.30;3.20;99673;;;;571870;247;24151;-79
2022/04/01 11:35:41;;;;;;;2.77;0.73;;;4.20;61.60;3.10;99681;;;;570329;247;24191;-77
2022/04/01 11:38:08;;;;;;;0.80;0.80;;;4.10;61.10;3.10;99712;;;;570689;247;24119;-78
2022/04/01 11:40:40;;;;;;;3.85;1.20;;;4.10;61.70;3.10;99704;;;;565719;247;35238;-79
2022/04/01 11:43:07;;;;;;;0.80;0.80;;;4.10;62.70;3.00;99692;;;;570345;247;24108;-79
2022/04/01 11:45:44;;;;;;;2.03;0.60;;;4.00;63.50;3.00;99702;;;;571602;247;25310;-79
2022/04/01 11:48:27;;;;;;;0.93;0.80;;;4.00;63.40;3.00;99686;;;;570291;247;24099;-77
2022/04/01 11:50:55;;;;;;;5.12;1.40;;;3.90;63.50;3.00;99674;;;;566645;247;35258;-78